Prochaines Courses

Connexion

Général

ODYSSEE DESVRES du 02/06/13 (Réelle 37)
Rang Dossard Nom Prénom Temps Cat Rang Cat Ecart Ecart Cat Club Vitesse Km/h Temps au Km
1 225 BOULOGNE Jérémy CUCHEVAL Mathias 01:42:56 MASCULINS 1 00:00:00 00:00:00 LES FLAHUTES 21,567 02:47
2 295 MASSON Mickael CUCHEVAL Samuel 01:49:24 MASCULINS 2 00:06:28 00:06:28 MARCKATHLON LYS CALAIS TRI 20,293 02:57
3 275 DINIELLE Arnaud LECARPENTIER Fabrice 01:53:09 MASCULINS 3 00:10:13 00:10:13 TEAM MANOSPORT 1 19,620 03:03
4 213 BOUCLET Bastien HURTEL David 01:53:13 MASCULINS 4 00:10:17 00:10:17 JARDINERIE TULIPE 19,608 03:04
5 287 FLINOIS Anthony PCZYBYLSKI Guillaume 01:54:11 MASCULINS 5 00:11:15 00:11:15 PEDAL DAMN IT 19,442 03:05
6 233 HERTAULT Ludovic BIGNOT Christophe 01:54:39 VETERANS 1 00:11:43 00:00:00 IMS RETAIL AGILITY 19,363 03:06
7 279 LOEUILLIEUX Stéphane LACROIX Olivier 01:57:43 MASCULINS 6 00:14:47 00:14:47 LE DRAPEAU D OPALE TRAIL NATURE 18,859 03:11
8 214 DANEL Marc André QUEVAL Jean-Jacques 01:58:35 VETERANS 2 00:15:39 00:03:56 MARCKATHLON TEAM 18,721 03:12
9 257 LEBLANC Maxime CLETY François 01:58:56 MASCULINS 7 00:16:00 00:16:00 MADE IN RAID 18,666 03:13
10 200 LANDRECIES Loic CROGIEZ José 01:59:29 MASCULINS 8 00:16:33 00:16:33 VELOLAND BOULOGNE 18,580 03:14
11 274 LEFEBVRE Julien BREQUEVILLE Samuel 02:02:10 MASCULINS 9 00:19:14 00:19:14 TOUQUET OPALE ATHETISME 18,172 03:18
12 201 CARRE Pauline QUEVAL Charles Hubert 02:03:00 MIXTES 1 00:20:04 00:00:00 LILLE 2 LA TENTATION 18,049 03:19
13 286 LELEU Laëtitia GOURDAIN Eric 02:03:28 MIXTES 2 00:20:32 00:00:28 LES CRAPULES 17,981 03:20
14 288 DEGARDIN Laurent PARENT Blaise 02:03:50 MASCULINS 10 00:20:54 00:20:54 TOP GUN 17,927 03:21
15 267 BIERNACKI Alexandre CLEMENT Damien 02:04:05 MASCULINS 11 00:21:09 00:21:09 TRAITHLON CLUB BOULONNAIS 17,891 03:21
16 221 LECOUTRE Thierry RIFFARD Jean 02:04:16 VETERANS 3 00:21:20 00:09:37 OTN TEAM VETERANS 17,865 03:22
17 278 THIBAULT Olivier LECLERCQ Richard 02:04:36 MASCULINS 12 00:21:40 00:21:40 LES BARONS BERCKOIS 17,817 03:22
18 252 BOURGUIGNON Vincent SUEUR Dominique 02:06:22 MASCULINS 13 00:23:26 00:23:26 TEAM TRAIL 1 17,568 03:25
19 203 SUEUR Fabrice CARPENTIER Thierry 02:06:33 VETERANS 4 00:23:37 00:11:54 SPORT EVASION DES 2 CAPS 17,542 03:25
20 289 DELAY Bastien SAISON Antoine 02:06:58 JEUNES 1 00:24:02 00:00:00 STAR FIRE 17,485 03:26
21 95 DUCROCQ Antoine MILLE Sébastien 02:07:27 MASCULINS 14 00:24:31 00:24:31 LES BOFS 17,419 03:27
22 204 FRANCOIS Gilbert ANDRIEUX Dimitri 02:08:15 MASCULINS 15 00:25:19 00:25:19 LYS CALAIS TRIATHLON PÈRE ET FILS 17,310 03:28
23 210 DUHAMEL Maxime CAFFIER Morgan 02:08:30 MASCULINS 16 00:25:34 00:25:34 LES FREE RAIDERS 17,276 03:28
24 226 MILLE Laurent MATRINGHEN Tony 02:09:00 MASCULINS 17 00:26:04 00:26:04 LES JAMBES EN MOUSSE 17,209 03:29
25 250 LECOCQ Chriss LAPOTRE Médéric 02:09:55 MASCULINS 18 00:26:59 00:26:59 LES BRAS CASSES 17,088 03:31
26 208 VANDAELE Jérome MERLIN Nicolas 02:11:03 MASCULINS 19 00:28:07 00:28:07 LES BIGORNOS 16,940 03:33
27 245 BLOND Céline BLOND Grégory 02:11:16 MIXTES 3 00:28:20 00:08:16 JULBO 1 16,912 03:33
28 235 VANDJOUR Philippe VANDJOUR Laurence 02:11:19 MIXTES 4 00:28:23 00:08:19 BISONS FUTES 16,906 03:33
29 202 MATHIEU Damien BIZ Delphine 02:11:30 MIXTES 5 00:28:34 00:08:30 GSO DUNKERQUE RAID AVENTURE 16,882 03:33
30 219 AIGOUY Damien CUCHEVAL Florence 02:11:51 MIXTES 6 00:28:55 00:08:51 LYS CALAIS TRIATHLON 16,837 03:34
31 242 BLANPAIN Jean-Pierre COMBET Philippe 02:12:23 VETERANS 5 00:29:27 00:17:44 LES GRAVELINOIS 16,769 03:35
32 299 LEGRAND Jean Serge VANDERZYPPE Ludovic 02:13:34 VETERANS 6 00:30:38 00:18:55 SAV 16,621 03:37
33 262 TETARD Christophe HODIQUE Hervé 02:13:46 VETERANS 7 00:30:50 00:19:07 LES POMPIERS DE DEFF 16,596 03:37
34 280 DIEUSET Anthony NOURTIER Nicolas 02:14:48 MASCULINS 20 00:31:52 00:31:52 OPALE TRAIL NATURE 16,469 03:39
35 259 LEFEBVRE Sébastien ESTAMPES François 02:15:00 MASCULINS 21 00:32:04 00:32:04 TEAM RAIDEUR 16,444 03:39
36 217 BEAUSSART Sébastien FLOURY Grégory 02:15:02 MASCULINS 22 00:32:06 00:32:06 TWIX 16,440 03:39
37 277 SCOBRY Anthony DEQUEKER Vincent 02:15:04 MASCULINS 23 00:32:08 00:32:08 CANYON'S BROTHERS 16,436 03:39
38 255 BIENIOSZEK Fabrice GLASSIER François 02:15:30 VETERANS 8 00:32:34 00:20:51 MEME PAS PEUR 16,384 03:40
39 273 LOEUILLIEUX Pierre LOEUILLIEUX Franck 02:15:34 MASCULINS 24 00:32:38 00:32:38 BIG BROTHERS 16,376 03:40
40 284 PORTEMONT Romain PORTEMONT Guillaume 02:16:08 MASCULINS 25 00:33:12 00:33:12 LES PETITS MINOUS 16,308 03:41
41 220 COEUGNET Manuel GAVEL Grégory 02:16:10 MASCULINS 26 00:33:14 00:33:14 SPORT EVASION JEUNES 16,304 03:41
42 268 LESAGE Marc HURTH Denis 02:16:53 MASCULINS 27 00:33:57 00:33:57 UNSA POLICE 16,218 03:42
43 237 DEBRUXELLES Sébastien SAISON Stéphane 02:17:19 MASCULINS 28 00:34:23 00:34:23 LES BOFS 16,167 03:43
44 224 LEVEL Fabien LEVEL Lina 02:17:43 MIXTES 7 00:34:47 00:14:43 LES GIVRES DU DRAPEAU 16,120 03:43
45 251 DEFACHELLE Geoffrey JACQUEMOD Mickael 02:18:10 MASCULINS 29 00:35:14 00:35:14 TEAM MANOSPORT 16,068 03:44
46 296 LHOMEL Antoine DEBAS Gérard 02:19:19 MASCULINS 30 00:36:23 00:36:23 FOR EVER 15,935 03:46
47 270 LEPETZ Olivier WAREMBOURG Philippe 02:19:22 MASCULINS 31 00:36:26 00:36:26 TEAM AIRSPIRE 15,929 03:46
48 298 DUCANDAS Franck DUMONT Emmanuel 02:19:50 MASCULINS 32 00:36:54 00:36:54 LES SKATEURS 15,876 03:47
49 300 BELLEMBOIS Stéphane DELCLOY Olivier 02:19:55 VETERANS 9 00:36:59 00:25:16 SAV 2 15,867 03:47
50 229 WARGNIER Philippe DUBOIS Tony 02:20:03 VETERANS 10 00:37:07 00:25:24 LES INCREVABLES DU LYS 15,851 03:47
51 98 SPILLIAERT Florence PRUVOST Yannick 02:20:25 MIXTES 8 00:37:29 00:17:25 DANS LE SPEED 15,810 03:48
52 234 MARTIN Jean-Michel MARTIN Andy 02:21:28 MASCULINS 33 00:38:32 00:38:32 LES MARTINUS 15,693 03:49
53 205 DELITTE Jérémy LAMOUR Maxime 02:21:31 MASCULINS 34 00:38:35 00:38:35 LES ZLATANNEURS 15,687 03:49
54 254 SCIGACZ Jérome THUILLIER Patrick 02:21:43 MASCULINS 35 00:38:47 00:38:47 COURIR A LA FOLIE 1 15,665 03:50
55 223 TELLIER Romain DEBETTE Florian 02:22:44 MASCULINS 36 00:39:48 00:39:48 LES FANTASTIQUES 15,553 03:51
56 256 LOBEZ Baptiste 0 0 02:23:34 MASCULINS 37 00:40:38 00:40:38 CH'TI BADDOW 15,463 03:53
57 291 LOEUILLEUX Bertrand VASSEUR Matthieu 02:23:49 MASCULINS 38 00:40:53 00:40:53 LES RETARDATAIRES 15,436 03:53
58 232 BALY Patrick BALY Adrien 02:23:56 MASCULINS 39 00:41:00 00:41:00 TEAM BALY 15,424 03:53
59 247 CAPDEVILLA Catherine LEROUX Guillaume 02:24:20 MIXTES 9 00:41:24 00:21:20 TEAM TRAIL 62 MIXTES 15,381 03:54
60 282 BLAEUCET Ludovic PRUVOST Nicolas 02:25:29 MASCULINS 40 00:42:33 00:42:33 GARMIN BROTHERS 15,259 03:56
61 239 MAQUINGHEN Christophe DEFOSSE Alexandre 02:25:37 MASCULINS 41 00:42:41 00:42:41 CHOUCHOU ET LOULOU 15,246 03:56
62 97 GUYOT Fabien JOURDAIN Charles 02:25:49 MASCULINS 42 00:42:53 00:42:53 8 MILE 15,225 03:56
63 216 BERNARD Quentin PIQUET Maxime 02:25:52 MASCULINS 43 00:42:56 00:42:56 LES CASCADEURS 15,219 03:57
64 96 LECOINTE Nicolas MANNESSIEZ Fabien 02:26:05 MASCULINS 44 00:43:09 00:43:09 LES RAMEURS 15,197 03:57
65 218 GAVOIS Cyril MONTIGNY Dimitri 02:26:17 MASCULINS 45 00:43:21 00:43:21 SPORT EVASION DES 2 CAPS LES GAMINS 15,176 03:57
66 283 COUTURE Sandra HALLUIN Jérémie 02:26:19 MIXTES 10 00:43:23 00:23:19 XTREM RIDERS 15,173 03:57
67 297 POURRE Fabienne MASSON Annick 02:26:42 FEMININES 1 00:43:46 00:00:00 LES FILLES DU LYS 15,133 03:58
68 236 LEBAS Eric MACQUET Olivier 02:27:33 VETERANS 11 00:44:37 00:32:54 LES CALMOS 15,046 03:59
69 244 ROSEY Christophe DEWEZ Julien 02:27:36 MASCULINS 46 00:44:40 00:44:40 LES MOUSQUETAIRES 15,041 03:59
70 293 LEBEC Mickael JOLLANT Maxime 02:28:05 MASCULINS 47 00:45:09 00:45:09 TUTY FRUTY 14,992 04:00
71 240 CARDON Florian DOCQUOIS Frédéric 02:28:50 MASCULINS 48 00:45:54 00:45:54 LES PTITS CULS 14,916 04:01
72 272 CHEMELLO Stéphane MACHION Thibault 02:29:21 MASCULINS 49 00:46:25 00:46:25 LES VEDETTES 14,864 04:02
73 228 LEJOSNE Luc DENGLOS Ludovic 02:29:39 VETERANS 12 00:46:43 00:35:00 TARFIA BOYS 14,835 04:03
74 249 CHOQUET Sébastien FALEMPIN James 02:30:24 MASCULINS 50 00:47:28 00:47:28 JAM ET SEB 14,761 04:04
75 264 DELATTRE Guillaume RENARD Julien 02:30:41 MASCULINS 51 00:47:45 00:47:45 LES BEAUFS 14,733 04:04
76 209 LEVEL Eddy DUFOUR Emmanuel 02:31:57 MASCULINS 52 00:49:01 00:49:01 VAS Y PEPERE 14,610 04:06
77 94 BAHEUX Jackie BAHEUX Florian 02:32:05 MASCULINS 53 00:49:09 00:49:09 LES LONGUEVILLOIS 14,597 04:07
78 231 BIZET Franck RUIZ Joseph 02:32:26 VETERANS 13 00:49:30 00:37:47 LES GRIZZLYS 14,564 04:07
79 241 RADENNE Christophe KRONUS Joël 02:33:20 VETERANS 14 00:50:24 00:38:41 LES BOYS 14,478 04:09
80 271 DAGNEAUX Armel BODART Jean François 02:35:54 MASCULINS 54 00:52:58 00:52:58 THE FALL GUY 14,240 04:13
81 207 KAHN Julie KAMINSKI Olivia 02:35:58 FEMININES 2 00:53:02 00:09:16 LES STELLIENNES 14,234 04:13
82 269 SUEUR Lise BRASSEUR Louis 02:37:16 MIXTES 11 00:54:20 00:34:16 LES BRASSEUR'S 14,116 04:15
83 276 BAREZ Cédric BAREZ Delphine 02:37:26 MIXTES 12 00:54:30 00:34:26 DUNKERQUE RAID AVENTURE B 14,101 04:15
84 263 HOLUIGUE Frédéric PIONTEK Fabrice 02:38:22 MASCULINS 55 00:55:26 00:55:26 LES COPAINS 14,018 04:17
85 206 GODART Valérie DEPLECHIN David 02:38:26 MIXTES 13 00:55:30 00:35:26 TURTLE TEAM 14,012 04:17
86 212 LELEU Thomas GIRARD Adrien 02:39:22 MASCULINS 56 00:56:26 00:56:26 LES MAZMOKETS 13,930 04:18
87 246 WASIAK Richard GREMONT Anne 02:39:52 MIXTES 14 00:56:56 00:36:52 JULBO 2 13,887 04:19
88 238 BOUVILLE Mélanie GUILBERT Aurélie 02:40:14 FEMININES 3 00:57:18 00:13:32 LES BACQUETTES 13,855 04:20
89 290 DELAY Mickael DELAY Caroline 02:41:35 MIXTES 15 00:58:39 00:38:35 UN DUO D'ENFER 13,739 04:22
90 261 KUSCHNICK Fabrice LAIDEZ Jonathan 02:42:48 MASCULINS 57 00:59:52 00:59:52 LES TIGRES DESVROIS 13,636 04:24
91 258 VERMOOTE Frédéric VERMOOTE Christèle 02:43:00 MIXTES 16 01:00:04 00:40:00 OPALE SPORT SANTE 13,620 04:24
92 243 REYMBAUT Jean-Pierre BAILLIEUL Jérémy 02:44:49 MASCULINS 58 01:01:53 01:01:53 ARSOUILLE-BRILOU 13,470 04:27
93 266 THOMAS Caroline CHARLON Anne 02:44:57 FEMININES 4 01:02:01 00:18:15 LES DUNKERQUOISES 13,459 04:27
94 222 ZAJAC Christel CLETON Eric 02:45:20 MIXTES 17 01:02:24 00:42:20 LES BUDDIES 13,427 04:28
95 248 ORY Nicolas COQUART Jérémy 02:45:28 MASCULINS 59 01:02:32 01:02:32 THE FOREST BOLT 13,417 04:28
96 215 RYCKEBUSCH Stéphane RYCKEBUSCH Marie 02:47:00 MIXTES 18 01:04:04 00:44:00 LA ZOUZOU TEAM 13,293 04:31
97 292 SAUVAGE Florian CLERCQ Victor 02:47:41 JEUNES 2 01:04:45 00:40:43 V'LA ENFIN LES RAIDES DINGUES 13,239 04:32
98 211 SUEUR Louis SCABAILLIE François 02:50:24 MASCULINS 60 01:07:28 01:07:28 LES INCONNUS 13,028 04:36
99 281 COINON Alexandre DECROOCQ Marie 02:50:48 MIXTES 19 01:07:52 00:47:48 LES BACHIBOUZOUKS 12,998 04:37
100 285 LEBRUN Sébastien VASSEUR Jean-Loup 02:53:22 MASCULINS 61 01:10:26 01:10:26 LES PISSE 4 GOUTTES 12,805 04:41
101 227 DELCLOQUE Philippe CANEL Benoit 02:53:33 MASCULINS 62 01:10:37 01:10:37 LES TOURISTES 12,792 04:41
102 265 IMBERT Stéphanie DAJON Rachel 03:26:55 FEMININES 5 01:43:59 01:00:13 LES MALOUINES 10,729 05:36